createdAt,value
2024-03-26T00:00:02.051Z,2.01
2024-03-26T00:01:02.069Z,1.92
2024-03-26T00:02:03.048Z,1.93
2024-03-26T00:03:02.027Z,1.92
2024-03-26T00:04:02.019Z,1.86
2024-03-26T00:05:01.994Z,1.85
2024-03-26T00:06:02.998Z,1.60
2024-03-26T00:07:02.028Z,1.70
2024-03-26T00:08:01.945Z,1.71
2024-03-26T00:09:01.949Z,1.72
2024-03-26T00:10:01.943Z,1.79
2024-03-26T00:11:01.996Z,1.81
2024-03-26T00:12:01.954Z,1.79
2024-03-26T00:13:01.950Z,1.85
2024-03-26T00:14:01.923Z,1.95
2024-03-26T00:15:01.945Z,1.89
2024-03-26T00:16:01.927Z,1.90
2024-03-26T00:17:01.935Z,1.79
2024-03-26T00:18:01.860Z,1.83
2024-03-26T00:19:01.864Z,1.70
2024-03-26T00:20:01.868Z,1.72
2024-03-26T00:21:01.824Z,1.70
2024-03-26T00:22:01.872Z,1.75
2024-03-26T00:23:01.825Z,1.77
2024-03-26T00:24:01.832Z,1.70
2024-03-26T00:25:01.771Z,1.71
2024-03-26T00:26:01.778Z,1.70
2024-03-26T00:27:01.759Z,1.75
2024-03-26T00:28:01.755Z,1.71
2024-03-26T00:29:01.747Z,1.70
2024-03-26T00:30:01.746Z,1.71
2024-03-26T00:31:01.715Z,1.74
2024-03-26T00:32:01.695Z,1.85
2024-03-26T00:33:01.736Z,1.82
2024-03-26T00:34:01.720Z,1.81
2024-03-26T00:35:01.697Z,1.74
2024-03-26T00:36:01.697Z,1.70
2024-03-26T00:37:01.687Z,1.79
2024-03-26T00:38:01.655Z,1.71
2024-03-26T00:39:01.618Z,1.90
2024-03-26T00:40:01.644Z,1.81
2024-03-26T00:41:01.611Z,1.82
2024-03-26T00:42:01.641Z,1.93
2024-03-26T00:43:01.602Z,1.93
2024-03-26T00:44:01.587Z,1.89
2024-03-26T00:45:01.548Z,1.86
2024-03-26T00:46:02.572Z,1.77
2024-03-26T00:47:01.567Z,1.74
2024-03-26T00:48:02.422Z,1.82
2024-03-26T00:49:01.520Z,1.74
2024-03-26T00:50:01.545Z,1.82
2024-03-26T00:51:01.514Z,1.79
2024-03-26T00:52:01.485Z,1.82
2024-03-26T00:53:01.501Z,1.89
2024-03-26T00:54:01.492Z,1.81
2024-03-26T00:55:01.507Z,1.79
2024-03-26T00:56:02.083Z,1.77
2024-03-26T00:57:01.444Z,1.81
2024-03-26T00:58:01.407Z,1.89
2024-03-26T00:59:01.492Z,1.90
2024-03-26T01:00:01.412Z,1.89
2024-03-26T01:01:01.404Z,1.86
2024-03-26T01:02:01.398Z,1.75
2024-03-26T01:03:01.417Z,1.81
2024-03-26T01:04:01.514Z,1.82
2024-03-26T01:05:01.390Z,1.79
2024-03-26T01:06:01.351Z,1.79
2024-03-26T01:07:01.342Z,1.82
2024-03-26T01:08:01.343Z,1.81
2024-03-26T01:09:01.358Z,1.72
2024-03-26T01:10:01.328Z,1.77
2024-03-26T01:11:01.325Z,1.81
2024-03-26T01:12:01.364Z,1.93
2024-03-26T01:13:01.313Z,1.83
2024-03-26T01:14:01.358Z,1.72
2024-03-26T01:15:01.247Z,1.61
2024-03-26T01:16:01.299Z,1.67
2024-03-26T01:17:01.215Z,1.64
2024-03-26T01:18:01.223Z,1.60
2024-03-26T01:19:01.413Z,1.52
2024-03-26T01:20:01.234Z,1.53
2024-03-26T01:21:01.187Z,1.57
2024-03-26T01:22:01.237Z,1.71
2024-03-26T01:23:01.204Z,1.60
2024-03-26T01:24:01.185Z,1.52
2024-03-26T01:25:01.162Z,1.60
2024-03-26T01:26:01.171Z,1.53
2024-03-26T01:27:01.194Z,1.56
2024-03-26T01:28:01.089Z,1.64
2024-03-26T01:29:01.128Z,1.46
2024-03-26T01:30:01.555Z,1.36
2024-03-26T01:31:01.992Z,1.32
2024-03-26T01:32:02.082Z,1.34
2024-03-26T01:33:01.061Z,1.36
2024-03-26T01:34:01.172Z,1.34
2024-03-26T01:35:01.050Z,1.38
2024-03-26T01:36:01.059Z,1.43
2024-03-26T01:37:01.051Z,1.36
2024-03-26T01:38:01.016Z,1.38
2024-03-26T01:39:01.056Z,1.36
2024-03-26T01:40:01.097Z,1.44
2024-03-26T01:41:01.035Z,1.49
2024-03-26T01:42:01.043Z,1.44
2024-03-26T01:43:01.034Z,1.38
2024-03-26T01:44:01.000Z,1.50
2024-03-26T01:45:01.009Z,1.46
2024-03-26T01:46:00.948Z,1.52
2024-03-26T01:47:00.934Z,1.46
2024-03-26T01:48:00.938Z,1.47
2024-03-26T01:49:00.918Z,1.54
2024-03-26T01:50:00.925Z,1.39
2024-03-26T01:51:00.874Z,1.31
2024-03-26T01:52:00.878Z,1.31
2024-03-26T01:53:00.859Z,1.29
2024-03-26T01:54:00.849Z,1.17
2024-03-26T01:55:00.831Z,1.13
2024-03-26T01:56:00.806Z,1.17
2024-03-26T01:57:00.824Z,1.16
2024-03-26T01:58:00.820Z,1.25
2024-03-26T01:59:00.833Z,1.34
2024-03-26T02:00:00.848Z,1.28
2024-03-26T02:01:00.741Z,1.17
2024-03-26T02:02:01.820Z,1.18
2024-03-26T02:03:00.922Z,1.14
2024-03-26T02:04:00.784Z,1.16
2024-03-26T02:05:00.769Z,1.13
2024-03-26T02:06:00.716Z,1.16
2024-03-26T02:07:00.705Z,1.25
2024-03-26T02:08:00.685Z,1.16
2024-03-26T02:09:00.714Z,1.14
2024-03-26T02:10:00.717Z,1.13
2024-03-26T02:11:00.655Z,1.16
2024-03-26T02:12:00.670Z,1.26
2024-03-26T02:13:00.660Z,1.31
2024-03-26T02:14:00.622Z,1.34
2024-03-26T02:15:00.607Z,1.36
2024-03-26T02:16:00.660Z,1.34
2024-03-26T02:17:00.604Z,1.28
2024-03-26T02:18:00.589Z,1.28
2024-03-26T02:19:00.593Z,1.34
2024-03-26T02:20:00.545Z,1.28
2024-03-26T02:21:00.563Z,1.35
2024-03-26T02:22:00.562Z,1.29
2024-03-26T02:23:00.525Z,1.24
2024-03-26T02:24:00.512Z,1.21
2024-03-26T02:25:00.525Z,1.25
2024-03-26T02:26:00.519Z,1.25
2024-03-26T02:27:00.521Z,1.28
2024-03-26T02:28:00.490Z,1.28
2024-03-26T02:29:00.456Z,1.20
2024-03-26T02:30:00.461Z,1.24
2024-03-26T02:31:00.506Z,1.21
2024-03-26T02:32:00.443Z,1.32
2024-03-26T02:33:01.419Z,1.26
2024-03-26T02:34:00.413Z,1.31
2024-03-26T02:35:00.412Z,1.26
2024-03-26T02:36:00.430Z,1.17
2024-03-26T02:37:00.405Z,1.11
2024-03-26T02:38:00.389Z,1.10
2024-03-26T02:39:00.412Z,1.07
2024-03-26T02:40:00.447Z,1.02
2024-03-26T02:41:00.375Z,1.07
2024-03-26T02:42:00.309Z,1.07
2024-03-26T02:43:00.343Z,1.13
2024-03-26T02:44:00.311Z,1.00
2024-03-26T02:45:00.299Z,0.98
2024-03-26T02:46:00.289Z,1.11
2024-03-26T02:47:00.288Z,1.13
2024-03-26T02:48:00.243Z,1.06
2024-03-26T02:49:01.235Z,1.14
2024-03-26T02:50:00.240Z,1.11
2024-03-26T02:51:00.211Z,1.11
2024-03-26T02:52:00.245Z,1.28
2024-03-26T02:53:00.427Z,1.10
2024-03-26T02:54:00.179Z,1.16
2024-03-26T02:55:00.206Z,1.18
2024-03-26T02:56:00.170Z,1.17
2024-03-26T02:57:00.159Z,1.14
2024-03-26T02:58:00.196Z,1.14
2024-03-26T02:59:00.156Z,1.25
2024-03-26T03:00:00.160Z,1.16
2024-03-26T03:01:00.145Z,1.26
2024-03-26T03:02:00.150Z,1.25
2024-03-26T03:03:00.103Z,1.17
2024-03-26T03:04:00.111Z,1.08
2024-03-26T03:05:00.085Z,1.02
2024-03-26T03:06:00.094Z,0.99
2024-03-26T03:07:00.072Z,1.11
2024-03-26T03:08:00.068Z,1.08
2024-03-26T03:09:00.087Z,1.14
2024-03-26T03:10:00.029Z,1.13
2024-03-26T03:10:59.996Z,1.11
2024-03-26T03:11:59.995Z,1.04
2024-03-26T03:12:59.979Z,1.13
2024-03-26T03:14:00.137Z,1.16
2024-03-26T03:14:59.980Z,1.11
2024-03-26T03:15:59.971Z,1.14
2024-03-26T03:16:59.956Z,1.13
2024-03-26T03:17:59.939Z,1.21
2024-03-26T03:19:00.210Z,1.10
2024-03-26T03:19:59.925Z,1.08
2024-03-26T03:20:59.882Z,1.02
2024-03-26T03:21:59.896Z,1.02
2024-03-26T03:22:59.889Z,1.07
2024-03-26T03:23:59.920Z,1.06
2024-03-26T03:24:59.889Z,1.04
2024-03-26T03:26:00.984Z,1.08
2024-03-26T03:26:59.842Z,1.14
2024-03-26T03:27:59.862Z,1.08
2024-03-26T03:28:59.808Z,1.07
2024-03-26T03:29:59.830Z,1.21
2024-03-26T03:30:59.802Z,1.04
2024-03-26T03:31:59.804Z,1.08
2024-03-26T03:32:59.800Z,1.20
2024-03-26T03:33:59.763Z,1.10
2024-03-26T03:34:59.774Z,1.13
2024-03-26T03:35:59.734Z,1.11
2024-03-26T03:36:59.752Z,1.08
2024-03-26T03:37:59.734Z,1.08
2024-03-26T03:38:59.751Z,1.25
2024-03-26T03:39:59.768Z,1.31
2024-03-26T03:40:59.706Z,1.18
2024-03-26T03:41:59.677Z,1.28
2024-03-26T03:42:59.677Z,1.20
2024-03-26T03:43:59.656Z,1.26
2024-03-26T03:44:59.918Z,1.26
2024-03-26T03:45:59.652Z,1.36
2024-03-26T03:46:59.641Z,1.31
2024-03-26T03:47:59.620Z,1.34
2024-03-26T03:48:59.646Z,1.29
2024-03-26T03:49:59.601Z,1.36
2024-03-26T03:51:01.072Z,1.32
2024-03-26T03:51:59.597Z,1.28
2024-03-26T03:53:00.454Z,1.42
2024-03-26T03:53:59.566Z,1.25
2024-03-26T03:54:59.576Z,1.25
2024-03-26T03:55:59.567Z,1.31
2024-03-26T03:56:59.606Z,1.26
2024-03-26T03:57:59.527Z,1.35
2024-03-26T03:58:59.515Z,1.32
2024-03-26T03:59:59.485Z,1.29
2024-03-26T04:00:59.521Z,1.36
2024-03-26T04:01:59.498Z,1.38
2024-03-26T04:02:59.496Z,1.36
2024-03-26T04:03:59.444Z,1.32
2024-03-26T04:04:59.434Z,1.35
2024-03-26T04:05:59.414Z,1.35
2024-03-26T04:06:59.451Z,1.44
2024-03-26T04:07:59.397Z,1.50
2024-03-26T04:08:59.466Z,1.44
2024-03-26T04:09:59.422Z,1.46
2024-03-26T04:10:59.373Z,1.52
2024-03-26T04:11:59.385Z,1.50
2024-03-26T04:12:59.358Z,1.57
2024-03-26T04:13:59.365Z,1.60
2024-03-26T04:14:59.350Z,1.56
2024-03-26T04:15:59.354Z,1.61
2024-03-26T04:16:59.365Z,1.47
2024-03-26T04:17:59.333Z,1.46
2024-03-26T04:18:59.351Z,1.46
2024-03-26T04:19:59.302Z,1.44
2024-03-26T04:20:59.266Z,1.47
2024-03-26T04:21:59.296Z,1.54
2024-03-26T04:23:00.311Z,1.49
2024-03-26T04:23:59.276Z,1.50
2024-03-26T04:24:59.269Z,1.47
2024-03-26T04:25:59.223Z,1.50
2024-03-26T04:26:59.221Z,1.38
2024-03-26T04:27:59.246Z,1.42
2024-03-26T04:28:59.200Z,1.46
2024-03-26T04:29:59.198Z,1.44
2024-03-26T04:30:59.174Z,1.52
2024-03-26T04:31:59.203Z,1.53
2024-03-26T04:32:59.203Z,1.42
2024-03-26T04:33:59.154Z,1.46
2024-03-26T04:34:59.142Z,1.44
2024-03-26T04:35:59.134Z,1.35
2024-03-26T04:36:59.139Z,1.47
2024-03-26T04:37:59.159Z,1.54
2024-03-26T04:38:59.092Z,1.47
2024-03-26T04:39:59.112Z,1.60
2024-03-26T04:40:59.065Z,1.70
2024-03-26T04:41:59.056Z,1.67
2024-03-26T04:42:59.099Z,1.71
2024-03-26T04:43:59.043Z,1.70
2024-03-26T04:44:59.072Z,1.82
2024-03-26T04:45:59.024Z,1.86
2024-03-26T04:46:59.087Z,1.89
2024-03-26T04:47:59.014Z,1.82
2024-03-26T04:48:59.020Z,1.88
2024-03-26T04:49:59.015Z,1.92
2024-03-26T04:50:58.979Z,1.85
2024-03-26T04:51:59.930Z,1.90
2024-03-26T04:52:58.944Z,1.93
2024-03-26T04:53:58.955Z,1.79
2024-03-26T04:54:58.919Z,1.79
2024-03-26T04:55:58.925Z,1.74
2024-03-26T04:56:58.985Z,1.81
2024-03-26T04:57:58.888Z,1.81
2024-03-26T04:58:58.895Z,1.77
2024-03-26T04:59:58.868Z,1.85
2024-03-26T05:00:58.897Z,1.71
2024-03-26T05:01:58.869Z,1.71
2024-03-26T05:02:58.879Z,1.77
2024-03-26T05:03:58.888Z,1.86
2024-03-26T05:04:58.825Z,1.82
2024-03-26T05:05:58.794Z,1.82
2024-03-26T05:06:58.817Z,1.85
2024-03-26T05:07:58.789Z,1.75
2024-03-26T05:08:58.957Z,1.83
2024-03-26T05:09:58.800Z,1.77
2024-03-26T05:10:58.769Z,1.83
2024-03-26T05:11:58.776Z,1.86
2024-03-26T05:12:58.754Z,1.81
2024-03-26T05:13:58.734Z,1.77
2024-03-26T05:14:58.753Z,1.82
2024-03-26T05:15:58.740Z,1.75
2024-03-26T05:16:58.714Z,1.98
2024-03-26T05:17:59.165Z,2.01
2024-03-26T05:18:58.680Z,2.05
2024-03-26T05:19:58.683Z,1.95
2024-03-26T05:20:58.668Z,2.02
2024-03-26T05:21:58.703Z,1.95
2024-03-26T05:22:59.520Z,2.04
2024-03-26T05:23:58.638Z,1.95
2024-03-26T05:24:58.652Z,2.11
2024-03-26T05:25:58.602Z,2.02
2024-03-26T05:26:58.616Z,2.12
2024-03-26T05:27:58.569Z,2.11
2024-03-26T05:28:58.578Z,2.09
2024-03-26T05:29:58.594Z,2.08
2024-03-26T05:30:58.546Z,2.11
2024-03-26T05:31:58.525Z,2.02
2024-03-26T05:32:58.534Z,2.05
2024-03-26T05:33:58.534Z,2.11
2024-03-26T05:34:58.558Z,2.11
2024-03-26T05:35:58.504Z,2.09
2024-03-26T05:36:58.486Z,2.15
2024-03-26T05:37:58.498Z,2.22
2024-03-26T05:38:58.458Z,2.20
2024-03-26T05:39:58.453Z,2.23
2024-03-26T05:40:58.470Z,2.29
2024-03-26T05:41:58.455Z,2.32
2024-03-26T05:42:58.443Z,2.22
2024-03-26T05:43:58.403Z,2.26
2024-03-26T05:44:58.397Z,2.30
2024-03-26T05:45:58.399Z,2.32
2024-03-26T05:46:58.383Z,2.41
2024-03-26T05:47:58.351Z,2.45
2024-03-26T05:48:58.363Z,2.45
2024-03-26T05:49:58.347Z,2.51
2024-03-26T05:50:59.385Z,2.61
2024-03-26T05:51:58.356Z,2.66
2024-03-26T05:52:58.366Z,2.76
2024-03-26T05:53:58.312Z,2.76
2024-03-26T05:54:58.306Z,2.83
2024-03-26T05:55:58.283Z,2.98
2024-03-26T05:56:58.301Z,3.04
2024-03-26T05:57:58.274Z,3.05
2024-03-26T05:58:58.927Z,2.97
2024-03-26T05:59:58.242Z,2.99
2024-03-26T06:00:58.235Z,3.19
2024-03-26T06:01:58.219Z,3.20
2024-03-26T06:02:58.241Z,3.28
2024-03-26T06:03:59.788Z,3.31
2024-03-26T06:04:59.179Z,3.50
2024-03-26T06:05:58.188Z,3.57
2024-03-26T06:06:58.199Z,3.75
2024-03-26T06:07:58.155Z,3.88
2024-03-26T06:08:58.134Z,4.02
2024-03-26T06:09:58.146Z,4.24
2024-03-26T06:10:58.106Z,4.57
2024-03-26T06:11:58.148Z,4.65
2024-03-26T06:12:58.088Z,4.68
2024-03-26T06:13:58.110Z,4.83
2024-03-26T06:14:58.103Z,4.99
2024-03-26T06:15:58.044Z,5.08
2024-03-26T06:16:58.158Z,5.12
2024-03-26T06:17:58.069Z,5.14
2024-03-26T06:18:58.008Z,5.38
2024-03-26T06:19:58.019Z,5.47
2024-03-26T06:20:58.016Z,5.70
2024-03-26T06:21:58.007Z,5.73
2024-03-26T06:22:58.042Z,5.65
2024-03-26T06:23:57.988Z,5.70
2024-03-26T06:24:57.954Z,5.80
2024-03-26T06:25:57.957Z,5.85
2024-03-26T06:26:57.943Z,5.85
2024-03-26T06:27:57.979Z,5.88
2024-03-26T06:28:57.942Z,5.87
2024-03-26T06:29:57.917Z,5.88
2024-03-26T06:30:57.894Z,5.75
2024-03-26T06:31:57.901Z,5.83
2024-03-26T06:32:57.929Z,5.80
2024-03-26T06:33:57.934Z,5.88
2024-03-26T06:34:57.868Z,5.98
2024-03-26T06:35:57.858Z,6.01
2024-03-26T06:36:57.831Z,6.05
2024-03-26T06:37:57.844Z,6.14
2024-03-26T06:38:57.850Z,6.30
2024-03-26T06:39:57.847Z,6.39
2024-03-26T06:40:58.282Z,6.50
2024-03-26T06:41:58.795Z,6.55
2024-03-26T06:42:57.807Z,6.68
2024-03-26T06:43:57.799Z,6.73
2024-03-26T06:44:57.785Z,6.72
2024-03-26T06:45:57.816Z,6.72
2024-03-26T06:46:57.752Z,6.68
2024-03-26T06:47:57.710Z,6.86
2024-03-26T06:48:57.696Z,7.04
2024-03-26T06:49:57.782Z,7.19
2024-03-26T06:50:57.721Z,7.52
2024-03-26T06:51:57.699Z,7.76
2024-03-26T06:52:57.654Z,8.12
2024-03-26T06:53:57.670Z,8.60
2024-03-26T06:54:57.645Z,9.12
2024-03-26T06:55:57.624Z,9.48
2024-03-26T06:56:57.664Z,9.89
2024-03-26T06:57:57.626Z,10.14
2024-03-26T06:58:57.659Z,10.46
2024-03-26T06:59:57.655Z,10.68
2024-03-26T07:00:57.582Z,11.21
2024-03-26T07:01:58.414Z,11.53
2024-03-26T07:02:57.580Z,11.81
2024-03-26T07:03:57.567Z,12.00
2024-03-26T07:04:57.525Z,12.03
2024-03-26T07:05:57.784Z,11.39
2024-03-26T07:06:57.498Z,9.74
2024-03-26T07:07:57.522Z,8.58
2024-03-26T07:08:57.565Z,8.20
2024-03-26T07:09:57.511Z,8.28
2024-03-26T07:10:57.530Z,8.14
2024-03-26T07:11:57.526Z,8.18
2024-03-26T07:12:58.997Z,8.06
2024-03-26T07:13:58.446Z,8.27
2024-03-26T07:14:57.470Z,8.57
2024-03-26T07:15:57.475Z,8.60
2024-03-26T07:16:57.412Z,8.58
2024-03-26T07:17:57.981Z,8.83
2024-03-26T07:18:57.386Z,8.88
2024-03-26T07:19:57.367Z,9.08
2024-03-26T07:20:57.465Z,9.26
2024-03-26T07:21:57.363Z,9.03
2024-03-26T07:22:57.317Z,8.98
2024-03-26T07:23:57.468Z,8.76
2024-03-26T07:24:57.324Z,9.06
2024-03-26T07:25:57.332Z,9.45
2024-03-26T07:26:57.336Z,9.73
2024-03-26T07:27:57.311Z,9.44
2024-03-26T07:28:57.279Z,8.91
2024-03-26T07:29:57.339Z,8.98
2024-03-26T07:30:57.250Z,8.86
2024-03-26T07:31:57.247Z,8.89
2024-03-26T07:32:57.313Z,8.86
2024-03-26T07:33:57.208Z,8.36
2024-03-26T07:34:57.266Z,8.21
2024-03-26T07:35:57.251Z,7.51
2024-03-26T07:36:57.232Z,7.96
2024-03-26T07:37:57.265Z,8.07
2024-03-26T07:38:57.171Z,8.42
2024-03-26T07:39:57.240Z,8.63
2024-03-26T07:40:57.198Z,8.85
2024-03-26T07:41:57.242Z,9.10
2024-03-26T07:42:58.438Z,8.57
2024-03-26T07:43:57.186Z,8.17
2024-03-26T07:44:57.120Z,7.91
2024-03-26T07:45:57.203Z,7.86
2024-03-26T07:46:57.095Z,7.77
2024-03-26T07:47:57.142Z,7.82
2024-03-26T07:48:57.120Z,8.07
2024-03-26T07:49:57.156Z,8.25
2024-03-26T07:50:57.125Z,8.39
2024-03-26T07:51:57.578Z,8.75
2024-03-26T07:52:58.068Z,9.10
2024-03-26T07:53:57.119Z,9.00
2024-03-26T07:54:57.055Z,8.32
2024-03-26T07:55:57.006Z,8.40
2024-03-26T07:56:57.077Z,8.80
2024-03-26T07:57:56.981Z,8.96
2024-03-26T07:58:57.005Z,9.03
2024-03-26T07:59:57.018Z,8.54
2024-03-26T08:00:56.918Z,8.45
2024-03-26T08:01:56.957Z,8.21
2024-03-26T08:02:56.921Z,8.21
2024-03-26T08:03:56.932Z,8.42
2024-03-26T08:04:56.890Z,8.54
2024-03-26T08:05:56.900Z,8.57
2024-03-26T08:06:56.859Z,8.54
2024-03-26T08:07:56.898Z,8.14
2024-03-26T08:08:56.873Z,8.22
2024-03-26T08:09:56.822Z,8.24
2024-03-26T08:10:56.817Z,8.43
2024-03-26T08:11:56.827Z,8.80
2024-03-26T08:12:56.869Z,9.12
2024-03-26T08:13:56.822Z,8.83
2024-03-26T08:14:56.828Z,8.89
2024-03-26T08:15:56.850Z,8.98
2024-03-26T08:16:56.768Z,8.52
2024-03-26T08:17:58.195Z,8.47
2024-03-26T08:18:56.802Z,8.13
2024-03-26T08:19:56.758Z,8.29
2024-03-26T08:20:56.725Z,8.28
2024-03-26T08:21:56.728Z,8.21
2024-03-26T08:22:56.714Z,8.24
2024-03-26T08:23:57.062Z,8.42
2024-03-26T08:24:58.656Z,8.42
2024-03-26T08:25:56.720Z,8.55
2024-03-26T08:26:56.848Z,8.47
2024-03-26T08:27:56.707Z,7.96
2024-03-26T08:28:56.634Z,8.04
2024-03-26T08:29:56.721Z,8.17
2024-03-26T08:30:56.855Z,8.32
2024-03-26T08:31:56.674Z,8.02
2024-03-26T08:32:56.614Z,8.32
2024-03-26T08:33:56.597Z,8.55
2024-03-26T08:34:56.549Z,8.76
2024-03-26T08:35:56.584Z,8.63
2024-03-26T08:36:56.518Z,8.55
2024-03-26T08:37:56.570Z,8.43
2024-03-26T08:38:56.574Z,8.18
2024-03-26T08:39:56.498Z,8.12
2024-03-26T08:40:57.392Z,8.43
2024-03-26T08:41:56.528Z,8.65
2024-03-26T08:42:56.461Z,8.97
2024-03-26T08:43:56.432Z,9.19
2024-03-26T08:44:56.578Z,9.42
2024-03-26T08:45:56.467Z,9.48
2024-03-26T08:46:56.438Z,9.67
2024-03-26T08:47:56.451Z,9.89
2024-03-26T08:48:56.401Z,9.93
2024-03-26T08:49:56.394Z,10.09
2024-03-26T08:50:56.437Z,10.13
2024-03-26T08:51:56.368Z,10.17
2024-03-26T08:52:56.366Z,10.32
2024-03-26T08:53:56.372Z,10.28
2024-03-26T08:54:56.342Z,10.29
2024-03-26T08:56:00.355Z,10.09
2024-03-26T08:56:57.341Z,9.95
2024-03-26T08:57:56.319Z,10.10
2024-03-26T08:58:56.306Z,10.02
2024-03-26T08:59:56.325Z,9.99
2024-03-26T09:00:56.325Z,10.10
2024-03-26T09:01:56.269Z,10.07
2024-03-26T09:02:56.300Z,10.14
2024-03-26T09:03:56.253Z,9.44
2024-03-26T09:04:56.236Z,8.68
2024-03-26T09:05:56.233Z,8.13
2024-03-26T09:06:56.210Z,8.14
2024-03-26T09:07:56.195Z,8.09
2024-03-26T09:08:56.179Z,8.18
2024-03-26T09:09:56.216Z,8.27
2024-03-26T09:10:56.157Z,8.22
2024-03-26T09:11:56.166Z,8.57
2024-03-26T09:12:56.140Z,8.57
2024-03-26T09:13:56.171Z,8.73
2024-03-26T09:14:56.211Z,8.64
2024-03-26T09:15:56.151Z,8.93
2024-03-26T09:16:56.106Z,9.00
2024-03-26T09:17:56.159Z,9.10
2024-03-26T09:19:00.389Z,9.17
2024-03-26T09:19:58.106Z,9.04
2024-03-26T09:20:56.096Z,9.13
2024-03-26T09:21:56.113Z,8.75
2024-03-26T09:22:56.041Z,8.32
2024-03-26T09:23:56.042Z,8.28
2024-03-26T09:24:56.044Z,8.28
2024-03-26T09:25:56.003Z,8.39
2024-03-26T09:26:56.083Z,8.40
2024-03-26T09:27:56.007Z,8.39
2024-03-26T09:28:55.987Z,8.40
2024-03-26T09:29:55.965Z,8.36
2024-03-26T09:30:55.980Z,8.40
2024-03-26T09:31:55.953Z,8.55
2024-03-26T09:32:55.983Z,8.50
2024-03-26T09:33:55.935Z,8.31
2024-03-26T09:34:55.927Z,8.34
2024-03-26T09:35:55.930Z,8.45
2024-03-26T09:36:55.972Z,8.54
2024-03-26T09:37:55.912Z,8.46
2024-03-26T09:39:06.561Z,8.49
2024-03-26T09:39:56.872Z,8.52
2024-03-26T09:40:55.866Z,8.55
2024-03-26T09:41:55.905Z,8.46
2024-03-26T09:42:55.824Z,8.46
2024-03-26T09:43:55.853Z,8.43
2024-03-26T09:45:05.204Z,8.54
2024-03-26T09:45:56.810Z,8.55
2024-03-26T09:46:55.793Z,8.47
2024-03-26T09:47:55.850Z,8.55
2024-03-26T09:48:55.790Z,8.47
2024-03-26T09:49:55.768Z,8.49
2024-03-26T09:50:55.890Z,8.50
2024-03-26T09:51:55.744Z,8.70
2024-03-26T09:52:55.741Z,8.79
2024-03-26T09:53:55.749Z,8.47
2024-03-26T09:54:55.719Z,8.49
2024-03-26T09:55:55.720Z,8.49
2024-03-26T09:56:55.691Z,8.55
2024-03-26T09:57:55.747Z,8.57
2024-03-26T09:58:55.674Z,8.61
2024-03-26T09:59:55.669Z,8.70
2024-03-26T10:00:55.686Z,8.67
2024-03-26T10:01:55.663Z,8.65
2024-03-26T10:02:55.661Z,8.73
2024-03-26T10:03:55.639Z,8.73
2024-03-26T10:04:55.619Z,8.82
2024-03-26T10:05:55.615Z,8.76
2024-03-26T10:06:55.591Z,9.01
2024-03-26T10:07:55.588Z,9.12
2024-03-26T10:08:55.607Z,9.26
2024-03-26T10:09:55.571Z,9.27
2024-03-26T10:10:55.559Z,9.03
2024-03-26T10:11:55.575Z,9.06
2024-03-26T10:12:55.540Z,8.93
2024-03-26T10:13:55.532Z,8.88
2024-03-26T10:14:55.534Z,8.86
2024-03-26T10:15:55.552Z,8.98
2024-03-26T10:16:55.498Z,9.00
2024-03-26T10:17:55.498Z,9.15
2024-03-26T10:18:55.476Z,9.13
2024-03-26T10:19:55.446Z,9.06
2024-03-26T10:20:55.677Z,8.89
2024-03-26T10:21:55.465Z,8.85
2024-03-26T10:22:55.426Z,8.83
2024-03-26T10:23:55.423Z,8.89
2024-03-26T10:24:55.414Z,9.06
2024-03-26T10:25:55.403Z,9.01
2024-03-26T10:26:55.403Z,9.17
2024-03-26T10:27:55.464Z,9.27
2024-03-26T10:28:55.371Z,9.42
2024-03-26T10:29:55.344Z,9.56
2024-03-26T10:30:55.350Z,9.34
2024-03-26T10:31:55.352Z,9.01
2024-03-26T10:32:55.342Z,8.93
2024-03-26T10:33:55.354Z,9.04
2024-03-26T10:34:55.324Z,9.04
2024-03-26T10:35:55.291Z,9.04
2024-03-26T10:36:55.312Z,9.27
2024-03-26T10:38:01.466Z,9.34
2024-03-26T10:39:02.879Z,9.19
2024-03-26T10:39:57.308Z,9.26
2024-03-26T10:40:58.415Z,9.63
2024-03-26T10:41:56.240Z,9.73
2024-03-26T10:42:55.238Z,9.68
2024-03-26T10:43:55.213Z,9.74
2024-03-26T10:44:55.270Z,9.42
2024-03-26T10:46:03.406Z,9.63
2024-03-26T10:46:56.206Z,9.52
2024-03-26T10:47:55.193Z,9.58
2024-03-26T10:49:01.258Z,9.50
2024-03-26T10:49:56.171Z,9.70
2024-03-26T10:50:55.138Z,9.77
2024-03-26T10:51:55.138Z,9.58
2024-03-26T10:52:55.134Z,9.85
2024-03-26T10:53:55.132Z,9.86
2024-03-26T10:54:55.113Z,9.86
2024-03-26T10:55:55.107Z,10.11
2024-03-26T10:56:55.099Z,10.31
2024-03-26T10:57:55.088Z,10.51
2024-03-26T10:58:55.087Z,10.70
2024-03-26T10:59:55.051Z,10.68
2024-03-26T11:00:55.111Z,10.73
2024-03-26T11:01:55.065Z,10.66
2024-03-26T11:02:55.043Z,10.31
2024-03-26T11:03:55.016Z,10.22
2024-03-26T11:04:55.002Z,10.25
2024-03-26T11:05:54.992Z,10.39
2024-03-26T11:06:54.973Z,10.39
2024-03-26T11:07:54.969Z,10.46
2024-03-26T11:08:54.984Z,10.65
2024-03-26T11:09:54.977Z,10.58
2024-03-26T11:10:56.043Z,10.62
2024-03-26T11:11:54.922Z,10.47
2024-03-26T11:12:54.934Z,10.87
2024-03-26T11:13:54.904Z,10.80
2024-03-26T11:14:54.911Z,10.65
2024-03-26T11:15:54.906Z,10.58
2024-03-26T11:16:54.883Z,10.68
2024-03-26T11:17:54.834Z,10.70
2024-03-26T11:18:54.846Z,10.57
2024-03-26T11:19:54.838Z,10.38
2024-03-26T11:20:54.836Z,10.51
2024-03-26T11:21:54.828Z,10.58
2024-03-26T11:22:54.811Z,10.43
2024-03-26T11:23:54.791Z,10.52
2024-03-26T11:24:54.757Z,10.32
2024-03-26T11:25:54.758Z,10.39
2024-03-26T11:26:54.743Z,10.46
2024-03-26T11:27:54.759Z,10.62
2024-03-26T11:28:54.754Z,10.36
2024-03-26T11:29:54.722Z,10.43
2024-03-26T11:30:54.696Z,10.65
2024-03-26T11:31:54.751Z,10.81
2024-03-26T11:32:54.688Z,11.02
2024-03-26T11:33:54.704Z,11.01
2024-03-26T11:34:54.650Z,10.63
2024-03-26T11:35:54.644Z,10.63
2024-03-26T11:36:54.639Z,10.62
2024-03-26T11:37:54.853Z,10.55
2024-03-26T11:38:54.645Z,10.55
2024-03-26T11:39:54.602Z,10.54
2024-03-26T11:40:54.621Z,10.57
2024-03-26T11:41:54.592Z,10.57
2024-03-26T11:42:54.636Z,10.57
2024-03-26T11:43:54.560Z,10.66
2024-03-26T11:44:54.540Z,10.80
2024-03-26T11:45:54.614Z,10.84
2024-03-26T11:46:54.535Z,10.90
2024-03-26T11:47:54.574Z,10.70
2024-03-26T11:48:54.517Z,10.80
2024-03-26T11:49:54.463Z,10.76
2024-03-26T11:50:55.501Z,10.87
2024-03-26T11:51:54.505Z,10.73
2024-03-26T11:52:54.435Z,10.87
2024-03-26T11:53:54.457Z,10.86
2024-03-26T11:54:54.434Z,10.90
2024-03-26T11:55:54.416Z,11.11
2024-03-26T11:56:55.404Z,11.41
2024-03-26T11:57:54.411Z,11.70
2024-03-26T11:58:54.395Z,11.56
2024-03-26T11:59:54.404Z,11.21
2024-03-26T12:00:54.392Z,11.01
2024-03-26T12:01:54.349Z,11.01
2024-03-26T12:02:54.315Z,11.08
2024-03-26T12:03:54.384Z,11.16
2024-03-26T12:04:54.324Z,11.35
2024-03-26T12:05:54.295Z,11.33
2024-03-26T12:06:54.332Z,11.49
2024-03-26T12:07:54.290Z,11.66
2024-03-26T12:08:54.290Z,11.51
2024-03-26T12:09:54.240Z,11.36
2024-03-26T12:10:54.283Z,11.51
2024-03-26T12:11:54.206Z,11.49
2024-03-26T12:12:54.264Z,11.38
2024-03-26T12:13:54.222Z,11.57
2024-03-26T12:14:54.225Z,11.63
2024-03-26T12:15:54.178Z,11.72
2024-03-26T12:16:54.248Z,12.00
2024-03-26T12:17:54.188Z,12.38
2024-03-26T12:18:54.142Z,12.33
2024-03-26T12:19:54.158Z,12.30
2024-03-26T12:20:54.099Z,12.62
2024-03-26T12:21:54.126Z,12.63
2024-03-26T12:22:54.095Z,12.49
2024-03-26T12:23:55.071Z,12.05
2024-03-26T12:24:54.092Z,12.12
2024-03-26T12:25:54.090Z,12.08
2024-03-26T12:26:54.075Z,12.04
2024-03-26T12:27:54.063Z,12.40
2024-03-26T12:28:54.036Z,12.71
2024-03-26T12:29:54.038Z,12.91
2024-03-26T12:30:54.008Z,12.94
2024-03-26T12:31:54.003Z,12.81
2024-03-26T12:32:53.984Z,12.80
2024-03-26T12:33:53.974Z,13.06
2024-03-26T12:34:54.872Z,12.88
2024-03-26T12:35:53.962Z,12.88
2024-03-26T12:36:53.986Z,12.74
2024-03-26T12:37:54.000Z,12.96
2024-03-26T12:38:55.319Z,12.92
2024-03-26T12:39:54.928Z,13.01
2024-03-26T12:40:53.960Z,13.03
2024-03-26T12:41:53.896Z,12.91
2024-03-26T12:42:53.847Z,12.92
2024-03-26T12:43:54.521Z,12.89
2024-03-26T12:44:53.872Z,12.99
2024-03-26T12:45:53.862Z,13.09
2024-03-26T12:46:53.858Z,13.29
2024-03-26T12:47:53.868Z,13.28
2024-03-26T12:48:53.801Z,13.07
2024-03-26T12:49:53.809Z,13.13
2024-03-26T12:50:53.813Z,13.07
2024-03-26T12:51:53.776Z,12.98
2024-03-26T12:52:53.783Z,12.99
2024-03-26T12:53:53.738Z,13.46
2024-03-26T12:54:53.767Z,13.87
2024-03-26T12:55:53.721Z,13.76
2024-03-26T12:56:53.766Z,13.80
2024-03-26T12:57:53.704Z,13.48
2024-03-26T12:58:54.038Z,13.63
2024-03-26T12:59:53.715Z,13.57
2024-03-26T13:00:53.699Z,13.63
2024-03-26T13:01:54.581Z,13.55
2024-03-26T13:02:54.713Z,13.57
2024-03-26T13:03:53.634Z,13.17
2024-03-26T13:04:53.633Z,13.10
2024-03-26T13:05:53.608Z,13.51
2024-03-26T13:06:53.633Z,13.76
2024-03-26T13:07:56.263Z,14.04
2024-03-26T13:08:54.590Z,14.02
2024-03-26T13:09:53.591Z,13.79
2024-03-26T13:10:53.599Z,13.54
2024-03-26T13:11:53.539Z,13.57
2024-03-26T13:12:53.540Z,13.44